createdAt,value
2018-06-24T00:02:05.324Z,12.33
2018-06-24T00:07:08.914Z,12.31
2018-06-24T00:12:12.081Z,12.25
2018-06-24T00:17:16.851Z,12.23
2018-06-24T00:22:20.050Z,12.23
2018-06-24T00:27:23.244Z,12.12
2018-06-24T00:32:26.580Z,12.07
2018-06-24T00:37:29.837Z,12.05
2018-06-24T00:42:33.231Z,12.10
2018-06-24T00:47:36.412Z,12.20
2018-06-24T00:52:39.575Z,12.20
2018-06-24T00:57:42.932Z,12.21
2018-06-24T01:02:46.107Z,12.19
2018-06-24T01:07:49.533Z,12.06
2018-06-24T01:12:52.750Z,11.96
2018-06-24T01:17:56.045Z,11.93
2018-06-24T01:22:59.235Z,11.89
2018-06-24T01:28:03.019Z,11.88
2018-06-24T01:33:07.025Z,11.89
2018-06-24T01:38:10.191Z,11.85
2018-06-24T01:43:13.361Z,11.84
2018-06-24T01:48:16.475Z,11.81
2018-06-24T01:53:19.620Z,11.83
2018-06-24T01:58:22.720Z,11.81
2018-06-24T02:03:25.931Z,11.79
2018-06-24T02:08:29.312Z,11.78
2018-06-24T02:13:32.566Z,11.75
2018-06-24T02:18:36.033Z,11.76
2018-06-24T02:23:39.284Z,11.81
2018-06-24T02:28:42.415Z,11.81
2018-06-24T02:33:45.578Z,11.81
2018-06-24T02:38:49.212Z,11.81
2018-06-24T02:43:52.323Z,11.86
2018-06-24T02:48:55.572Z,11.90
2018-06-24T02:53:58.842Z,11.92
2018-06-24T02:59:02.345Z,11.91
2018-06-24T03:04:05.543Z,11.90
2018-06-24T03:09:08.748Z,11.92
2018-06-24T03:14:11.896Z,11.96
2018-06-24T03:19:15.040Z,12.04
2018-06-24T03:24:18.210Z,12.04
2018-06-24T03:29:21.312Z,12.02
2018-06-24T03:34:24.550Z,12.09
2018-06-24T03:39:27.806Z,12.02
2018-06-24T03:44:31.071Z,12.01
2018-06-24T03:49:34.223Z,12.03
2018-06-24T03:54:37.330Z,12.08
2018-06-24T03:59:40.480Z,12.05
2018-06-24T04:04:43.633Z,12.04
2018-06-24T04:09:46.786Z,12.15
2018-06-24T04:14:49.946Z,12.16
2018-06-24T04:19:53.128Z,12.23
2018-06-24T04:24:56.455Z,12.32
2018-06-24T04:29:59.564Z,12.35
2018-06-24T04:35:02.816Z,12.40
2018-06-24T04:40:06.939Z,12.53
2018-06-24T04:45:10.081Z,12.51
2018-06-24T04:50:13.270Z,12.59
2018-06-24T04:55:16.378Z,12.58
2018-06-24T05:00:19.545Z,12.67
2018-06-24T05:05:22.852Z,12.86
2018-06-24T05:10:26.127Z,12.81
2018-06-24T05:15:29.304Z,12.71
2018-06-24T05:20:32.595Z,12.70
2018-06-24T05:25:35.746Z,12.82
2018-06-24T05:30:39.054Z,12.85
2018-06-24T05:35:42.242Z,12.91
2018-06-24T05:40:45.490Z,13.00
2018-06-24T05:45:48.792Z,13.19
2018-06-24T05:50:51.944Z,13.28
2018-06-24T05:55:55.224Z,13.50
2018-06-24T06:00:58.427Z,13.61
2018-06-24T06:06:01.623Z,13.71
2018-06-24T06:11:04.941Z,13.71
2018-06-24T06:16:08.107Z,14.02
2018-06-24T06:21:13.487Z,13.80
2018-06-24T06:26:16.685Z,13.65
2018-06-24T06:31:20.000Z,13.62
2018-06-24T06:36:23.202Z,13.59
2018-06-24T06:41:26.439Z,13.76
2018-06-24T06:46:29.629Z,13.53
2018-06-24T06:51:32.804Z,13.58
2018-06-24T06:56:36.087Z,13.38
2018-06-24T07:01:39.276Z,13.24
2018-06-24T07:06:42.574Z,13.03
2018-06-24T07:11:45.849Z,13.20
2018-06-24T07:16:49.375Z,13.24
2018-06-24T07:21:52.546Z,13.36
2018-06-24T07:26:55.664Z,12.96
2018-06-24T07:31:58.814Z,13.03
2018-06-24T07:37:01.970Z,13.44
2018-06-24T07:42:05.197Z,13.71
2018-06-24T07:47:08.403Z,13.81
2018-06-24T07:52:14.757Z,13.47
2018-06-24T07:57:18.287Z,13.76
2018-06-24T08:02:21.646Z,13.63
2018-06-24T08:07:24.960Z,13.88
2018-06-24T08:12:28.181Z,13.90
2018-06-24T08:17:31.390Z,13.60
2018-06-24T08:22:34.517Z,13.36
2018-06-24T08:27:37.725Z,13.37
2018-06-24T08:32:41.473Z,13.33
2018-06-24T08:37:44.663Z,13.45
2018-06-24T08:42:47.871Z,13.47
2018-06-24T08:47:51.075Z,13.45
2018-06-24T08:52:54.233Z,13.62
2018-06-24T08:57:57.363Z,13.83
2018-06-24T09:03:00.482Z,14.21
2018-06-24T09:08:04.149Z,13.85
2018-06-24T09:13:07.215Z,14.28
2018-06-24T09:18:10.304Z,14.43
2018-06-24T09:23:13.451Z,14.54
2018-06-24T09:28:17.400Z,14.65
2018-06-24T09:33:20.627Z,15.74
2018-06-24T09:38:23.989Z,15.93
2018-06-24T09:43:27.126Z,16.30
2018-06-24T09:48:31.724Z,16.07
2018-06-24T09:53:35.513Z,15.78
2018-06-24T09:58:38.700Z,15.18
2018-06-24T10:03:41.828Z,15.98
2018-06-24T10:08:45.133Z,16.06
2018-06-24T10:13:48.324Z,16.38
2018-06-24T10:18:51.470Z,16.87
2018-06-24T10:23:54.611Z,16.15
2018-06-24T10:28:57.750Z,15.86
2018-06-24T10:34:00.993Z,16.47
2018-06-24T10:39:07.904Z,17.01
2018-06-24T10:44:11.136Z,17.83
2018-06-24T10:49:14.274Z,18.86
2018-06-24T10:54:17.706Z,17.83
2018-06-24T10:59:21.255Z,18.46
2018-06-24T11:04:24.435Z,19.38
2018-06-24T11:09:27.662Z,19.17
2018-06-24T11:14:30.847Z,18.47
2018-06-24T11:19:35.878Z,18.18
2018-06-24T11:24:39.138Z,18.92
2018-06-24T11:29:42.280Z,19.39
2018-06-24T11:34:45.591Z,18.28
2018-06-24T11:39:48.947Z,17.10
2018-06-24T11:44:52.134Z,17.26
2018-06-24T11:49:55.653Z,17.03
2018-06-24T11:54:58.787Z,16.51
2018-06-24T12:00:03.654Z,16.76
2018-06-24T12:05:07.679Z,16.90
2018-06-24T12:10:10.835Z,17.64
2018-06-24T12:15:14.041Z,16.78
2018-06-24T12:20:17.469Z,16.87
2018-06-24T12:25:20.770Z,16.73
2018-06-24T12:30:24.000Z,17.11
2018-06-24T12:35:27.204Z,16.50
2018-06-24T12:40:30.345Z,16.00
2018-06-24T12:45:33.787Z,16.64
2018-06-24T12:50:37.001Z,16.96
2018-06-24T12:55:40.178Z,16.73
2018-06-24T13:00:43.848Z,16.92
2018-06-24T13:05:47.566Z,16.51
2018-06-24T13:10:50.885Z,15.60
2018-06-24T13:15:54.153Z,14.58
2018-06-24T13:20:57.312Z,15.99
2018-06-24T13:26:00.410Z,16.74
2018-06-24T13:31:03.562Z,17.64
2018-06-24T13:36:06.691Z,17.22
2018-06-24T13:41:09.881Z,16.10
2018-06-24T13:46:13.200Z,15.62
2018-06-24T13:51:16.435Z,15.09
2018-06-24T13:56:19.625Z,14.85
2018-06-24T14:01:22.769Z,14.74
2018-06-24T14:06:25.853Z,14.86
2018-06-24T14:11:29.005Z,15.29
2018-06-24T14:16:32.124Z,15.61
2018-06-24T14:21:35.370Z,15.77
2018-06-24T14:26:38.693Z,16.32
2018-06-24T14:31:41.911Z,16.63
2018-06-24T14:36:45.150Z,16.69
2018-06-24T14:41:48.344Z,17.72
2018-06-24T14:46:51.788Z,17.72
2018-06-24T14:51:57.243Z,18.28
2018-06-24T14:57:00.459Z,18.38
2018-06-24T15:02:03.660Z,18.01
2018-06-24T15:07:07.344Z,17.28
2018-06-24T15:12:10.856Z,17.19
2018-06-24T15:17:14.138Z,16.78
2018-06-24T15:22:17.752Z,16.25
2018-06-24T15:27:21.140Z,16.15
2018-06-24T15:32:24.492Z,15.72
2018-06-24T15:37:27.673Z,15.94
2018-06-24T15:42:31.188Z,15.60
2018-06-24T15:47:34.452Z,15.44
2018-06-24T15:52:37.703Z,15.44
2018-06-24T15:57:40.894Z,15.82
2018-06-24T16:02:45.278Z,15.90
2018-06-24T16:07:50.622Z,15.84
2018-06-24T16:12:53.813Z,15.98
2018-06-24T16:17:57.530Z,15.94
2018-06-24T16:23:00.767Z,15.76
2018-06-24T16:28:04.069Z,15.66
2018-06-24T16:33:07.347Z,15.46
2018-06-24T16:38:12.464Z,15.52
2018-06-24T16:43:17.296Z,15.51
2018-06-24T16:48:20.443Z,15.35
2018-06-24T16:53:23.650Z,15.22
2018-06-24T16:58:26.842Z,15.10
2018-06-24T17:03:30.056Z,15.09
2018-06-24T17:08:33.291Z,15.03
2018-06-24T17:13:38.518Z,14.95
2018-06-24T17:18:42.004Z,14.77
2018-06-24T17:23:45.312Z,14.31
2018-06-24T17:28:48.536Z,13.98
2018-06-24T17:33:51.744Z,13.83
2018-06-24T17:38:55.241Z,13.82
2018-06-24T17:43:58.448Z,13.83
2018-06-24T17:49:01.572Z,13.89
2018-06-24T17:54:06.254Z,13.95
2018-06-24T17:59:09.447Z,13.96
2018-06-24T18:04:14.506Z,13.97
2018-06-24T18:09:18.426Z,13.85
2018-06-24T18:14:24.011Z,13.75
2018-06-24T18:19:34.880Z,13.66
2018-06-24T18:24:39.530Z,13.58
2018-06-24T18:29:44.261Z,13.52
2018-06-24T18:34:49.045Z,13.54
2018-06-24T18:39:53.486Z,13.56
2018-06-24T18:45:01.470Z,13.50
2018-06-24T18:50:04.789Z,13.48
2018-06-24T18:55:08.175Z,13.47
2018-06-24T19:00:13.002Z,13.45
2018-06-24T19:05:16.784Z,13.37
2018-06-24T19:10:20.915Z,13.42
2018-06-24T19:15:24.301Z,13.40
2018-06-24T19:20:27.484Z,13.38
2018-06-24T19:25:31.698Z,13.39
2018-06-24T19:30:35.441Z,13.38
2018-06-24T19:35:39.859Z,13.37
2018-06-24T19:40:45.443Z,13.37
2018-06-24T19:45:50.458Z,13.35
2018-06-24T19:50:54.849Z,13.34
2018-06-24T19:55:59.359Z,13.32
2018-06-24T20:01:04.259Z,13.34
2018-06-24T20:06:08.214Z,13.42
2018-06-24T20:11:11.267Z,13.38
2018-06-24T20:16:14.499Z,13.42
2018-06-24T20:21:18.392Z,13.41
2018-06-24T20:26:21.769Z,13.44
2018-06-24T20:31:24.945Z,13.44
2018-06-24T20:36:28.068Z,13.43
2018-06-24T20:41:31.214Z,13.41
2018-06-24T20:46:34.338Z,13.47
2018-06-24T20:51:37.444Z,13.46
2018-06-24T20:56:40.818Z,13.51
2018-06-24T21:01:44.079Z,13.49
2018-06-24T21:06:47.305Z,13.49
2018-06-24T21:11:50.509Z,13.49
2018-06-24T21:16:53.744Z,13.49
2018-06-24T21:21:57.569Z,13.51
2018-06-24T21:27:00.993Z,13.54
2018-06-24T21:32:04.358Z,13.57
2018-06-24T21:37:07.618Z,13.56
2018-06-24T21:42:10.993Z,13.56
2018-06-24T21:47:14.220Z,13.56
2018-06-24T21:52:17.433Z,13.48
2018-06-24T21:57:20.616Z,13.50
2018-06-24T22:02:23.696Z,13.48
2018-06-24T22:07:26.949Z,13.50
2018-06-24T22:12:30.052Z,13.53
2018-06-24T22:17:34.065Z,13.47
2018-06-24T22:22:37.298Z,13.48
2018-06-24T22:27:40.557Z,13.54
2018-06-24T22:32:44.077Z,13.57
2018-06-24T22:37:47.260Z,13.56
2018-06-24T22:42:50.442Z,13.58
2018-06-24T22:47:53.690Z,13.49
2018-06-24T22:52:56.976Z,13.50
2018-06-24T22:58:00.099Z,13.46
2018-06-24T23:03:04.557Z,13.45
2018-06-24T23:08:07.681Z,13.48
2018-06-24T23:13:10.797Z,13.43
2018-06-24T23:18:13.974Z,13.38
2018-06-24T23:23:17.070Z,13.43
2018-06-24T23:28:20.252Z,13.37
2018-06-24T23:33:23.535Z,13.35
2018-06-24T23:38:26.746Z,13.35
2018-06-24T23:43:29.819Z,13.24
2018-06-24T23:48:34.002Z,13.20
2018-06-24T23:53:37.175Z,13.11
2018-06-24T23:58:40.287Z,13.11
